Time;durP1;ratioP1;P1;durP2;ratioP2;P2;SDS_P1;SDS_P2;PMS_P1;PMS_P2;Temp;Humidity;BMP_temperature;BMP_pressure;BME280_temperature;BME280_humidity;BME280_pressure;Samples;Min_cycle;Max_cycle;Signal;HPM_P1;HPM_P2
2023/07/06 00:01:24;;;;;;;2.80;1.27;;;16.40;99.90;;;;;;5021598;28;20043;-71
2023/07/06 00:03:51;;;;;;;4.38;1.00;;;16.30;99.90;;;;;;5022548;28;20344;-71
2023/07/06 00:06:18;;;;;;;2.95;1.10;;;16.20;99.90;;;;;;5021511;28;20028;-71
2023/07/06 00:08:44;;;;;;;1.50;0.73;;;16.20;99.90;;;;;;5024745;28;20543;-71
2023/07/06 00:11:10;;;;;;;1.25;0.80;;;16.30;99.90;;;;;;5019269;28;20124;-71
2023/07/06 00:13:40;;;;;;;2.03;1.02;;;16.30;99.90;;;;;;5027653;28;20104;-71
2023/07/06 00:16:07;;;;;;;1.77;1.00;;;16.20;99.90;;;;;;5018089;28;20030;-71
2023/07/06 00:18:33;;;;;;;3.03;1.00;;;16.00;99.90;;;;;;5029248;28;20388;-71
2023/07/06 00:21:00;;;;;;;2.33;1.48;;;16.00;99.90;;;;;;5035011;28;20571;-71
2023/07/06 00:23:26;;;;;;;3.80;1.17;;;16.00;99.90;;;;;;5028659;28;20044;-71
2023/07/06 00:25:52;;;;;;;1.65;0.77;;;15.70;99.90;;;;;;5016181;28;20508;-71
2023/07/06 00:28:24;;;;;;;2.10;1.20;;;15.80;99.90;;;;;;5029867;28;20033;-71
2023/07/06 00:30:55;;;;;;;4.50;1.50;;;15.80;99.90;;;;;;5018464;28;20044;-71
2023/07/06 00:33:23;;;;;;;2.20;0.85;;;15.30;99.90;;;;;;5010217;28;20116;-71
2023/07/06 00:35:50;;;;;;;2.13;1.20;;;15.10;99.90;;;;;;5014353;28;20048;-71
2023/07/06 00:38:19;;;;;;;2.47;1.00;;;15.10;99.90;;;;;;5029196;28;20032;-71
2023/07/06 00:40:51;;;;;;;4.13;1.30;;;15.20;99.90;;;;;;5017481;28;20381;-72
2023/07/06 00:43:21;;;;;;;2.83;1.40;;;15.20;99.90;;;;;;5029257;28;20044;-71
2023/07/06 00:45:57;;;;;;;2.05;0.70;;;15.30;99.90;;;;;;5011195;28;20030;-71
2023/07/06 00:48:31;;;;;;;2.45;0.90;;;15.20;99.90;;;;;;4990262;28;20093;-71
2023/07/06 00:51:08;;;;;;;1.98;0.95;;;15.20;99.90;;;;;;5015588;28;20034;-71
2023/07/06 00:53:41;;;;;;;1.83;0.98;;;15.30;99.90;;;;;;5030802;28;20041;-71
2023/07/06 00:56:11;;;;;;;4.57;1.25;;;15.30;99.90;;;;;;5024806;28;20122;-71
2023/07/06 00:58:47;;;;;;;2.00;0.93;;;15.10;99.90;;;;;;5030998;28;20040;-72
2023/07/06 01:01:21;;;;;;;6.53;1.25;;;15.20;99.90;;;;;;5023359;28;20516;-72
2023/07/06 01:03:53;;;;;;;1.20;0.88;;;15.20;99.90;;;;;;5027923;28;20042;-72
2023/07/06 01:06:43;;;;;;;2.67;1.35;;;15.20;99.90;;;;;;5003378;28;20022;-72
2023/07/06 01:09:10;;;;;;;1.92;1.15;;;15.10;99.90;;;;;;5013814;28;20048;-72
2023/07/06 01:11:37;;;;;;;2.80;1.15;;;15.10;99.90;;;;;;5022029;28;20148;-72
2023/07/06 01:14:03;;;;;;;1.38;0.95;;;15.10;99.90;;;;;;5024844;28;20371;-72
2023/07/06 01:16:59;;;;;;;1.70;0.93;;;15.10;99.90;;;;;;5020439;28;20029;-72
2023/07/06 01:20:04;;;;;;;1.80;0.80;;;15.10;99.90;;;;;;5006154;28;20485;-70
2023/07/06 01:22:43;;;;;;;2.90;1.27;;;15.20;99.90;;;;;;5019162;28;20060;-72
2023/07/06 01:25:42;;;;;;;2.05;0.98;;;15.20;99.90;;;;;;5023111;28;20056;-72
2023/07/06 01:28:58;;;;;;;2.78;1.45;;;15.20;99.90;;;;;;5032145;28;20507;-72
2023/07/06 01:32:03;;;;;;;2.92;1.00;;;15.20;99.90;;;;;;5015237;28;20489;-72
2023/07/06 01:34:57;;;;;;;5.45;1.45;;;15.30;99.90;;;;;;5013816;28;20117;-72
2023/07/06 01:37:36;;;;;;;4.40;0.95;;;15.30;99.90;;;;;;5017704;28;20061;-72
2023/07/06 01:40:09;;;;;;;2.60;1.10;;;15.20;99.90;;;;;;5007352;28;20432;-72
2023/07/06 01:42:37;;;;;;;3.75;1.23;;;15.10;99.90;;;;;;4993720;28;20054;-72
2023/07/06 01:45:20;;;;;;;4.72;1.17;;;14.90;99.90;;;;;;5010575;28;20025;-72
2023/07/06 01:47:55;;;;;;;6.70;2.15;;;14.90;99.90;;;;;;5028124;28;20477;-73
2023/07/06 01:50:45;;;;;;;2.08;1.20;;;14.90;99.90;;;;;;5016944;28;20030;-72
2023/07/06 01:53:37;;;;;;;2.13;1.58;;;14.90;99.90;;;;;;5031312;28;20022;-72
2023/07/06 01:56:09;;;;;;;;;;;14.80;99.90;;;;;;5021440;28;20049;-72
2023/07/06 01:58:45;;;;;;;2.70;1.20;;;14.90;99.90;;;;;;5031218;28;19909;-72
2023/07/06 02:01:25;;;;;;;2.13;1.10;;;14.80;99.90;;;;;;5021013;28;20035;-72
2023/07/06 02:03:53;;;;;;;3.42;1.10;;;14.90;99.90;;;;;;5023429;28;20018;-72
2023/07/06 02:06:19;;;;;;;3.65;1.30;;;14.90;99.90;;;;;;5015889;28;20021;-72
2023/07/06 02:08:45;;;;;;;6.40;1.70;;;15.00;99.90;;;;;;5028841;28;20572;-72
2023/07/06 02:11:15;;;;;;;6.22;1.63;;;14.90;99.90;;;;;;5005609;28;20030;-72
2023/07/06 02:13:41;;;;;;;3.33;1.58;;;14.90;99.90;;;;;;5030039;28;20029;-72
2023/07/06 02:16:09;;;;;;;2.80;1.40;;;14.80;99.90;;;;;;5022064;28;20037;-72
2023/07/06 02:18:36;;;;;;;4.32;1.45;;;14.70;99.90;;;;;;5011176;28;20029;-72
2023/07/06 02:21:03;;;;;;;4.40;1.25;;;14.90;99.90;;;;;;5020734;28;20397;-72
2023/07/06 02:23:30;;;;;;;2.60;1.20;;;14.70;99.90;;;;;;5030432;28;20108;-72
2023/07/06 02:25:56;;;;;;;4.07;1.55;;;14.70;99.90;;;;;;5021076;28;20022;-72
2023/07/06 02:28:23;;;;;;;4.22;1.77;;;14.80;99.90;;;;;;5031610;28;20033;-72
2023/07/06 02:30:52;;;;;;;2.55;1.08;;;14.90;99.90;;;;;;5012727;28;20080;-72
2023/07/06 02:33:19;;;;;;;3.15;1.35;;;15.00;99.90;;;;;;4991866;28;20026;-72
2023/07/06 02:35:46;;;;;;;3.97;1.60;;;15.10;99.90;;;;;;5015367;28;20037;-72
2023/07/06 02:38:18;;;;;;;5.25;1.65;;;15.20;99.90;;;;;;5030673;28;20436;-72
2023/07/06 02:40:44;;;;;;;5.18;1.20;;;15.30;99.90;;;;;;5013185;28;20074;-73
2023/07/06 02:43:10;;;;;;;5.80;1.20;;;15.30;99.90;;;;;;5030283;28;20044;-72
2023/07/06 02:45:36;;;;;;;3.53;1.30;;;15.30;99.90;;;;;;5022012;28;20563;-72
2023/07/06 02:48:04;;;;;;;3.50;1.60;;;15.40;99.90;;;;;;5028671;28;20107;-72
2023/07/06 02:50:30;;;;;;;2.90;1.30;;;15.40;99.90;;;;;;5014902;28;20502;-72
2023/07/06 02:52:57;;;;;;;3.75;1.25;;;15.40;99.90;;;;;;5027505;28;20136;-72
2023/07/06 02:55:23;;;;;;;2.03;0.90;;;15.30;99.90;;;;;;5015913;28;20375;-72
2023/07/06 02:57:49;;;;;;;6.18;1.55;;;15.20;99.90;;;;;;5010556;28;20056;-72
2023/07/06 03:00:17;;;;;;;8.07;1.23;;;15.20;99.90;;;;;;5020433;28;20049;-72
2023/07/06 03:02:50;;;;;;;4.65;1.05;;;15.20;99.90;;;;;;5014195;28;20041;-72
2023/07/06 03:05:22;;;;;;;4.13;1.27;;;15.10;99.90;;;;;;5002879;28;20048;-72
2023/07/06 03:07:51;;;;;;;2.97;1.20;;;15.10;99.90;;;;;;5001064;28;20023;-72
2023/07/06 03:10:19;;;;;;;2.90;1.30;;;15.10;99.90;;;;;;5013762;28;20038;-72
2023/07/06 03:12:46;;;;;;;6.53;2.17;;;15.20;99.90;;;;;;5006332;28;20053;-72
2023/07/06 03:15:13;;;;;;;4.97;1.38;;;15.10;99.90;;;;;;5007076;28;20034;-72
2023/07/06 03:17:40;;;;;;;1.63;0.82;;;15.10;99.90;;;;;;5012696;28;20030;-72
2023/07/06 03:20:18;;;;;;;5.40;1.40;;;15.10;99.90;;;;;;5007126;28;20042;-72
2023/07/06 03:22:48;;;;;;;2.45;1.08;;;15.10;99.90;;;;;;5015232;28;20060;-72
2023/07/06 03:27:46;;;;;;;1.80;1.02;;;14.80;99.90;;;;;;5018162;28;20050;-75
2023/07/06 03:30:15;;;;;;;3.72;1.15;;;14.80;99.90;;;;;;4994406;28;20034;-75
2023/07/06 03:32:41;;;;;;;5.38;1.75;;;14.60;99.90;;;;;;4992940;28;20034;-76
2023/07/06 03:35:10;;;;;;;4.05;1.40;;;14.40;99.90;;;;;;4995053;28;20481;-76
2023/07/06 03:37:37;;;;;;;2.30;1.23;;;14.50;99.90;;;;;;4953599;28;20541;-76
2023/07/06 03:40:05;;;;;;;3.17;1.27;;;14.50;99.90;;;;;;4988345;28;20043;-76
2023/07/06 03:42:32;;;;;;;2.38;1.23;;;14.50;99.90;;;;;;4977726;28;20038;-76
2023/07/06 03:44:57;;;;;;;2.88;1.10;;;14.50;99.90;;;;;;4976936;28;20112;-76
2023/07/06 03:47:26;;;;;;;2.72;0.98;;;14.50;99.90;;;;;;4975059;28;20037;-76
2023/07/06 03:49:56;;;;;;;8.32;1.20;;;14.40;99.90;;;;;;4978096;28;20049;-75
2023/07/06 03:52:22;;;;;;;3.45;1.55;;;14.50;99.90;;;;;;4990595;28;20141;-75
2023/07/06 03:54:47;;;;;;;3.40;1.30;;;14.60;99.90;;;;;;4991453;28;20045;-76
2023/07/06 03:57:16;;;;;;;2.20;1.10;;;14.50;99.90;;;;;;4973892;28;20030;-75
2023/07/06 03:59:43;;;;;;;8.82;1.83;;;14.50;99.90;;;;;;4991324;28;20039;-76
2023/07/06 04:02:09;;;;;;;3.22;1.27;;;14.40;99.90;;;;;;4990453;28;20037;-76
2023/07/06 04:04:36;;;;;;;2.95;1.50;;;14.40;99.90;;;;;;4991120;28;20041;-76
2023/07/06 04:07:02;;;;;;;4.00;1.63;;;14.10;99.90;;;;;;4973693;28;20053;-76
2023/07/06 04:09:28;;;;;;;2.55;1.30;;;14.00;99.90;;;;;;4964581;28;20494;-76
2023/07/06 04:11:55;;;;;;;2.38;1.30;;;14.00;99.90;;;;;;4973839;28;20042;-76
2023/07/06 04:14:25;;;;;;;1.92;1.08;;;14.00;99.90;;;;;;4981153;28;20034;-74
2023/07/06 04:16:52;;;;;;;2.78;1.20;;;14.00;99.90;;;;;;4991189;28;20040;-75
2023/07/06 04:19:18;;;;;;;2.60;1.67;;;13.90;99.90;;;;;;4973620;28;20034;-76
2023/07/06 04:21:44;;;;;;;3.22;1.70;;;14.10;99.90;;;;;;4973931;28;20026;-76
2023/07/06 04:24:09;;;;;;;2.95;1.42;;;14.00;99.90;;;;;;4994108;28;20126;-77
2023/07/06 04:26:36;;;;;;;4.75;1.40;;;14.10;99.90;;;;;;4985729;28;20030;-77
2023/07/06 04:29:02;;;;;;;4.10;1.88;;;14.10;99.90;;;;;;4964837;28;20777;-76
2023/07/06 04:31:27;;;;;;;2.78;1.23;;;14.20;99.90;;;;;;4982294;28;20027;-77
2023/07/06 04:33:54;;;;;;;1.98;0.95;;;14.30;99.90;;;;;;4964921;28;20513;-77
2023/07/06 04:36:20;;;;;;;3.20;1.13;;;14.30;99.90;;;;;;4973555;28;20109;-77
2023/07/06 04:38:46;;;;;;;4.20;1.02;;;14.50;99.90;;;;;;4988664;28;20126;-77
2023/07/06 04:41:15;;;;;;;3.75;1.20;;;14.50;99.90;;;;;;4989959;28;20085;-76
2023/07/06 04:43:40;;;;;;;3.65;1.30;;;14.70;99.90;;;;;;4991088;28;20035;-80
2023/07/06 04:46:08;;;;;;;4.43;1.30;;;14.80;99.90;;;;;;4970899;28;20058;-79
2023/07/06 04:48:34;;;;;;;9.75;3.92;;;14.90;99.90;;;;;;4994642;28;20488;-78
2023/07/06 04:51:01;;;;;;;4.03;1.92;;;15.00;99.90;;;;;;4974802;28;20101;-78
2023/07/06 04:53:28;;;;;;;4.43;1.70;;;15.00;99.90;;;;;;4981378;28;20038;-77
2023/07/06 04:55:59;;;;;;;6.07;1.92;;;15.10;99.90;;;;;;4985711;28;20031;-62
2023/07/06 04:58:25;;;;;;;4.72;1.80;;;15.20;99.90;;;;;;4981993;28;20032;-62
2023/07/06 05:00:51;;;;;;;3.72;2.53;;;15.30;99.90;;;;;;4989777;28;20035;-63
2023/07/06 05:03:17;;;;;;;3.30;1.63;;;15.40;99.90;;;;;;4990235;28;20030;-62
2023/07/06 05:05:46;;;;;;;3.63;1.98;;;15.50;99.90;;;;;;4990387;28;20042;-62
2023/07/06 05:08:16;;;;;;;6.18;2.65;;;15.50;99.90;;;;;;4990483;28;20438;-63
2023/07/06 05:10:50;;;;;;;2.87;1.47;;;15.50;99.90;;;;;;4973093;28;20093;-62
2023/07/06 05:13:17;;;;;;;4.80;1.48;;;15.50;99.90;;;;;;4990302;28;20034;-61
2023/07/06 05:15:44;;;;;;;3.17;1.42;;;15.50;99.90;;;;;;4989403;28;20034;-62
2023/07/06 05:18:10;;;;;;;5.45;1.65;;;15.70;99.90;;;;;;4980169;28;20027;-61
2023/07/06 05:20:36;;;;;;;4.20;2.33;;;15.70;99.90;;;;;;4989610;28;20046;-75
2023/07/06 05:23:05;;;;;;;4.72;1.17;;;15.70;99.90;;;;;;4978642;28;20610;-76
2023/07/06 05:25:31;;;;;;;11.50;1.55;;;15.80;99.90;;;;;;4989387;28;20026;-71
2023/07/06 05:27:57;;;;;;;3.03;1.58;;;15.90;99.90;;;;;;4978373;28;20027;-75
2023/07/06 05:30:23;;;;;;;2.55;1.42;;;16.00;99.90;;;;;;4972693;28;20053;-74
2023/07/06 05:32:49;;;;;;;1.63;1.00;;;15.90;99.90;;;;;;4989970;28;20031;-70
2023/07/06 05:35:15;;;;;;;2.08;1.38;;;16.10;99.90;;;;;;4990455;28;20164;-72
2023/07/06 05:37:42;;;;;;;2.65;1.35;;;16.10;99.90;;;;;;4990594;28;20101;-81
2023/07/06 05:40:09;;;;;;;7.90;1.40;;;16.10;99.90;;;;;;4994603;28;20124;-80
2023/07/06 05:42:35;;;;;;;5.28;1.20;;;16.00;99.90;;;;;;4994118;28;20023;-77
2023/07/06 05:45:01;;;;;;;4.80;1.50;;;16.10;99.90;;;;;;4994991;28;20026;-75
2023/07/06 05:47:27;;;;;;;2.83;1.38;;;16.00;99.90;;;;;;4989317;28;20490;-71
2023/07/06 05:49:53;;;;;;;1.98;1.17;;;15.90;99.90;;;;;;4991450;28;20038;-75
2023/07/06 05:52:19;;;;;;;4.93;2.17;;;16.10;99.90;;;;;;4975339;28;20113;-75
2023/07/06 05:54:45;;;;;;;3.03;1.08;;;16.10;99.90;;;;;;4993458;28;20105;-76
2023/07/06 05:57:13;;;;;;;3.50;1.50;;;16.20;99.90;;;;;;4992514;28;20046;-75
2023/07/06 05:59:41;;;;;;;3.58;1.40;;;16.20;99.90;;;;;;4993241;28;20682;-76
2023/07/06 06:02:12;;;;;;;6.10;1.83;;;16.20;99.90;;;;;;4992740;28;20092;-76
2023/07/06 06:04:39;;;;;;;5.50;1.60;;;16.30;99.90;;;;;;4993352;28;20486;-76
2023/07/06 06:07:06;;;;;;;4.28;1.90;;;16.40;99.90;;;;;;4975738;28;20449;-75
2023/07/06 06:09:35;;;;;;;5.07;1.60;;;16.40;99.90;;;;;;4993391;28;20078;-75
2023/07/06 06:12:03;;;;;;;3.58;1.40;;;16.50;99.90;;;;;;4991394;28;20034;-74
2023/07/06 06:14:30;;;;;;;3.17;1.70;;;16.60;99.90;;;;;;4982674;28;20037;-77
2023/07/06 06:16:56;;;;;;;3.70;1.55;;;16.70;99.90;;;;;;4972543;28;20034;-74
2023/07/06 06:19:22;;;;;;;5.47;1.63;;;16.70;99.90;;;;;;4984031;28;20479;-68
2023/07/06 06:21:49;;;;;;;5.30;1.83;;;16.80;99.90;;;;;;4985307;28;20037;-74
2023/07/06 06:24:15;;;;;;;4.32;2.03;;;16.80;99.90;;;;;;4977177;28;20033;-73
2023/07/06 06:26:42;;;;;;;6.35;2.13;;;17.00;99.90;;;;;;4992141;28;20105;-73
2023/07/06 06:29:09;;;;;;;4.68;2.60;;;17.00;99.90;;;;;;4992604;28;20027;-74
2023/07/06 06:31:42;;;;;;;5.97;2.78;;;17.20;99.90;;;;;;4958907;28;20105;-63
2023/07/06 06:34:10;;;;;;;11.55;2.85;;;17.20;99.90;;;;;;4983360;28;20034;-64
2023/07/06 06:36:36;;;;;;;3.35;1.52;;;17.40;99.90;;;;;;4992065;28;20030;-63
2023/07/06 06:39:02;;;;;;;3.65;1.60;;;17.50;99.90;;;;;;4992452;28;20104;-63
2023/07/06 06:41:28;;;;;;;4.85;1.50;;;17.80;99.90;;;;;;4975435;28;20717;-63
2023/07/06 06:43:56;;;;;;;3.35;1.60;;;17.90;99.90;;;;;;4991900;28;20037;-63
2023/07/06 06:46:23;;;;;;;3.75;1.63;;;18.00;99.90;;;;;;4991833;28;20053;-62
2023/07/06 06:48:49;;;;;;;2.50;1.40;;;18.20;99.90;;;;;;4997442;28;20025;-63
2023/07/06 06:51:15;;;;;;;4.53;1.42;;;18.30;99.90;;;;;;5001875;28;20054;-63
2023/07/06 06:53:41;;;;;;;5.22;1.80;;;18.50;99.90;;;;;;4991086;28;20052;-64
2023/07/06 06:56:09;;;;;;;2.75;1.75;;;18.60;99.90;;;;;;4990835;28;20037;-63
2023/07/06 06:58:36;;;;;;;11.52;1.77;;;18.70;99.90;;;;;;4981628;28;20034;-63
2023/07/06 07:01:05;;;;;;;3.28;1.25;;;18.70;99.90;;;;;;4991214;28;20038;-64
2023/07/06 07:03:32;;;;;;;3.08;1.25;;;18.70;99.90;;;;;;4966339;28;20026;-63
2023/07/06 07:06:11;;;;;;;5.30;0.90;;;18.70;99.90;;;;;;4991324;28;20057;-63
2023/07/06 07:08:43;;;;;;;2.35;1.00;;;18.70;99.90;;;;;;4991993;28;20030;-64
2023/07/06 07:11:13;;;;;;;2.03;0.80;;;18.90;99.90;;;;;;4990211;28;20062;-64
2023/07/06 07:13:40;;;;;;;3.22;0.93;;;19.00;99.90;;;;;;4991325;28;20030;-64
2023/07/06 07:16:11;;;;;;;1.15;0.82;;;19.10;99.90;;;;;;4990990;28;20038;-64
2023/07/06 07:18:38;;;;;;;;;;;19.20;99.90;;;;;;4983237;28;20073;-64
2023/07/06 07:21:08;;;;;;;2.42;0.82;;;19.20;99.90;;;;;;4990963;28;19922;-64
2023/07/06 07:23:42;;;;;;;3.58;1.40;;;19.40;99.90;;;;;;4991337;28;20029;-63
2023/07/06 07:26:17;;;;;;;4.80;1.20;;;19.30;99.90;;;;;;4990758;28;20073;-63
2023/07/06 07:28:44;;;;;;;3.40;1.10;;;19.30;99.90;;;;;;4958951;28;20030;-63
2023/07/06 07:31:13;;;;;;;4.43;1.55;;;19.40;99.90;;;;;;4990956;28;20042;-63
2023/07/06 07:33:43;;;;;;;4.05;1.10;;;19.40;99.90;;;;;;4982204;28;20022;-63
2023/07/06 07:36:11;;;;;;;2.67;0.88;;;19.60;99.90;;;;;;4974624;28;20074;-63
2023/07/06 07:38:38;;;;;;;2.45;0.90;;;19.60;99.90;;;;;;4981841;28;20099;-63
2023/07/06 07:41:07;;;;;;;2.50;1.77;;;19.90;99.90;;;;;;4989644;28;20380;-64
2023/07/06 07:43:36;;;;;;;2.97;1.15;;;20.00;99.90;;;;;;4990377;28;20038;-63
2023/07/06 07:46:06;;;;;;;1.92;0.93;;;20.00;99.80;;;;;;4975672;28;20041;-62
2023/07/06 07:48:45;;;;;;;3.55;1.42;;;20.00;99.90;;;;;;4990996;28;20030;-62
2023/07/06 07:51:17;;;;;;;2.38;1.27;;;20.00;99.80;;;;;;4985464;28;20113;-62
2023/07/06 07:53:44;;;;;;;3.58;1.23;;;20.10;99.80;;;;;;4990912;28;20065;-62
2023/07/06 07:56:13;;;;;;;3.63;1.38;;;20.10;99.90;;;;;;4990189;28;20632;-64
2023/07/06 07:58:40;;;;;;;4.05;1.27;;;20.20;99.70;;;;;;4990824;28;20034;-64
2023/07/06 08:01:09;;;;;;;7.15;1.70;;;20.20;99.60;;;;;;4969192;28;20118;-64
2023/07/06 08:03:36;;;;;;;4.95;1.58;;;20.20;99.50;;;;;;4990422;28;20406;-65
2023/07/06 08:06:08;;;;;;;2.30;1.20;;;20.30;99.40;;;;;;4989805;28;20398;-65
2023/07/06 08:08:36;;;;;;;3.50;1.55;;;20.30;99.20;;;;;;4975325;28;20020;-64
2023/07/06 08:11:10;;;;;;;9.82;1.30;;;20.50;98.90;;;;;;4971348;28;20548;-63
2023/07/06 08:13:36;;;;;;;3.97;1.80;;;20.60;99.00;;;;;;4971309;28;20026;-65
2023/07/06 08:16:04;;;;;;;6.68;2.83;;;20.70;98.80;;;;;;4985915;28;20041;-65
2023/07/06 08:18:31;;;;;;;3.10;1.50;;;20.60;98.70;;;;;;4981484;28;20540;-65
2023/07/06 08:21:00;;;;;;;4.85;1.80;;;20.60;98.70;;;;;;4968887;28;20125;-65
2023/07/06 08:23:28;;;;;;;4.57;1.65;;;20.70;98.70;;;;;;4990410;28;20026;-65
2023/07/06 08:25:54;;;;;;;2.80;1.27;;;20.80;98.20;;;;;;4989623;28;20029;-65
2023/07/06 08:28:28;;;;;;;4.70;1.48;;;21.00;98.50;;;;;;4990466;28;20018;-65
2023/07/06 08:30:55;;;;;;;5.18;2.08;;;21.00;97.70;;;;;;4989867;28;20113;-65
2023/07/06 08:33:23;;;;;;;2.10;1.20;;;21.00;97.80;;;;;;4989890;28;20031;-65
2023/07/06 08:35:50;;;;;;;4.15;1.35;;;20.90;97.70;;;;;;4990148;28;20034;-65
2023/07/06 08:38:16;;;;;;;2.72;1.05;;;20.80;97.70;;;;;;4990496;28;20101;-65
2023/07/06 08:40:48;;;;;;;2.15;1.17;;;21.00;97.60;;;;;;4976507;28;20172;-65
2023/07/06 08:43:26;;;;;;;3.80;1.38;;;21.30;97.10;;;;;;4980450;28;20394;-65
2023/07/06 08:46:00;;;;;;;4.32;1.48;;;21.40;96.60;;;;;;4969017;28;20050;-64
2023/07/06 08:48:30;;;;;;;2.95;1.42;;;21.50;96.30;;;;;;4949657;28;20165;-65
2023/07/06 08:51:12;;;;;;;2.37;0.97;;;21.50;95.70;;;;;;4975860;28;20490;-64
2023/07/06 08:53:43;;;;;;;5.18;1.20;;;21.50;95.10;;;;;;4975594;28;20030;-65
2023/07/06 08:56:14;;;;;;;2.85;1.23;;;21.20;95.60;;;;;;4992430;28;20473;-65
2023/07/06 08:58:42;;;;;;;1.52;1.15;;;21.30;95.60;;;;;;4965017;28;20037;-64
2023/07/06 09:01:22;;;;;;;2.25;0.95;;;21.30;95.10;;;;;;4972623;28;20035;-65
2023/07/06 09:03:59;;;;;;;2.00;0.77;;;21.40;94.30;;;;;;4976855;28;20030;-64
2023/07/06 09:06:28;;;;;;;4.50;1.05;;;21.50;93.60;;;;;;4981236;28;20030;-64
2023/07/06 09:09:01;;;;;;;1.75;0.95;;;21.40;93.80;;;;;;4980546;28;20022;-64
2023/07/06 09:11:31;;;;;;;2.35;1.08;;;21.60;94.10;;;;;;4988431;28;20422;-63
2023/07/06 09:14:00;;;;;;;2.25;0.90;;;21.80;93.80;;;;;;4973956;28;20100;-64
2023/07/06 09:16:26;;;;;;;2.22;0.75;;;22.10;93.60;;;;;;4979573;28;20121;-65
2023/07/06 09:18:53;;;;;;;3.28;1.20;;;22.20;93.60;;;;;;4992857;28;20092;-61
2023/07/06 09:21:25;;;;;;;2.25;1.00;;;21.90;93.70;;;;;;4992937;28;20077;-61
2023/07/06 09:23:57;;;;;;;2.83;1.15;;;21.90;93.80;;;;;;4993842;28;20034;-61
2023/07/06 09:26:35;;;;;;;2.95;0.93;;;21.60;93.30;;;;;;4976492;28;20084;-61
2023/07/06 09:29:25;;;;;;;5.22;1.52;;;21.40;94.00;;;;;;4946468;28;20057;-60
2023/07/06 09:32:21;;;;;;;4.00;1.63;;;21.60;93.80;;;;;;5020239;22;20049;-61
2023/07/06 09:34:55;;;;;;;4.03;1.40;;;21.90;92.80;;;;;;5022572;28;20076;-60
2023/07/06 09:37:22;;;;;;;4.03;1.15;;;22.10;92.90;;;;;;5028633;28;20022;-63
2023/07/06 09:40:05;;;;;;;2.13;0.88;;;22.20;93.00;;;;;;5032718;28;20400;-61
2023/07/06 09:42:33;;;;;;;2.80;0.93;;;22.10;92.50;;;;;;5016683;28;20041;-66
2023/07/06 09:45:00;;;;;;;4.60;1.30;;;22.30;92.60;;;;;;5008394;28;20360;-69
2023/07/06 09:47:30;;;;;;;4.22;0.85;;;22.70;91.00;;;;;;5017714;28;20019;-66
2023/07/06 09:50:07;;;;;;;1.48;0.63;;;22.80;90.60;;;;;;5004913;28;20085;-61
2023/07/06 09:52:39;;;;;;;1.13;0.73;;;22.80;91.10;;;;;;5020665;28;20112;-61
2023/07/06 09:55:29;;;;;;;4.10;0.82;;;23.10;91.20;;;;;;5014428;28;20454;-66
2023/07/06 09:57:57;;;;;;;1.25;0.57;;;23.30;90.50;;;;;;5009765;28;20452;-64
2023/07/06 10:00:35;;;;;;;2.33;1.20;;;23.10;90.10;;;;;;5010365;28;20042;-67
2023/07/06 10:03:52;;;;;;;4.47;1.00;;;23.40;90.20;;;;;;5007834;28;20417;-68
2023/07/06 10:06:38;;;;;;;4.78;0.82;;;22.70;90.60;;;;;;4980965;28;20046;-63
2023/07/06 10:09:18;;;;;;;1.75;0.60;;;23.30;90.50;;;;;;5011244;28;20041;-67
2023/07/06 10:11:55;;;;;;;3.75;1.10;;;23.60;89.80;;;;;;5010346;28;20370;-61
2023/07/06 10:14:54;;;;;;;3.58;0.82;;;23.70;90.50;;;;;;5003550;28;20037;-53
2023/07/06 10:17:25;;;;;;;1.73;0.82;;;23.60;89.00;;;;;;5011448;28;20045;-50
2023/07/06 10:20:13;;;;;;;2.22;1.15;;;23.60;89.10;;;;;;5027530;28;20045;-66
2023/07/06 10:23:55;;;;;;;1.80;0.77;;;23.80;90.20;;;;;;5011248;28;20149;-52
2023/07/06 10:26:28;;;;;;;2.80;0.70;;;24.00;89.60;;;;;;4989109;28;20042;-51
2023/07/06 10:29:09;;;;;;;3.25;1.08;;;24.40;89.30;;;;;;5011107;28;20040;-53
2023/07/06 10:32:04;;;;;;;4.20;1.55;;;24.40;88.50;;;;;;5005473;28;20044;-49
2023/07/06 10:34:38;;;;;;;8.55;1.05;;;24.60;88.00;;;;;;5007545;28;20493;-47
2023/07/06 10:37:05;;;;;;;2.65;0.90;;;24.80;87.10;;;;;;5024874;28;20169;-50
2023/07/06 10:39:32;;;;;;;2.72;1.00;;;24.80;85.40;;;;;;5009491;28;20505;-54
2023/07/06 10:42:19;;;;;;;1.55;0.77;;;24.80;85.50;;;;;;5011241;28;20038;-55
2023/07/06 10:44:51;;;;;;;3.80;0.80;;;24.00;85.70;;;;;;5011899;28;20049;-55
2023/07/06 10:47:29;;;;;;;2.58;0.93;;;24.30;85.30;;;;;;5007451;28;20028;-55
2023/07/06 10:50:19;;;;;;;2.72;1.17;;;24.00;83.60;;;;;;5010301;28;20501;-49
2023/07/06 10:53:21;;;;;;;3.50;1.13;;;23.70;86.50;;;;;;5004743;28;20034;-55
2023/07/06 10:56:01;;;;;;;3.42;1.15;;;23.40;86.00;;;;;;4990556;28;20046;-55
2023/07/06 10:58:34;;;;;;;1.80;0.70;;;23.80;86.20;;;;;;5007478;28;20485;-65
2023/07/06 11:01:12;;;;;;;3.47;1.42;;;24.10;85.40;;;;;;5006908;28;20109;-68
2023/07/06 11:03:42;;;;;;;1.75;0.90;;;24.40;85.20;;;;;;5011163;28;20030;-68
2023/07/06 11:06:35;;;;;;;1.80;0.80;;;24.70;84.50;;;;;;5007167;28;20030;-68
2023/07/06 11:09:16;;;;;;;2.00;0.98;;;25.00;85.10;;;;;;5015865;28;20083;-68
2023/07/06 11:11:49;;;;;;;3.00;1.05;;;25.60;82.00;;;;;;5012170;28;20136;-68
2023/07/06 11:14:33;;;;;;;3.78;0.80;;;25.90;81.40;;;;;;5011207;28;20029;-68
2023/07/06 11:17:15;;;;;;;3.80;0.85;;;26.30;80.20;;;;;;5010603;28;20138;-69
2023/07/06 11:19:51;;;;;;;1.42;0.85;;;26.10;77.20;;;;;;5012582;28;20041;-67
2023/07/06 11:22:23;;;;;;;3.90;1.20;;;25.90;76.20;;;;;;5009878;28;20148;-67
2023/07/06 11:24:56;;;;;;;1.23;0.73;;;25.50;75.40;;;;;;5006029;28;20026;-67
2023/07/06 11:27:29;;;;;;;1.65;0.70;;;25.50;76.50;;;;;;5015017;28;20060;-68
2023/07/06 11:30:03;;;;;;;2.13;0.77;;;25.60;75.40;;;;;;5008033;28;20092;-69
2023/07/06 11:33:06;;;;;;;3.50;0.80;;;25.80;74.60;;;;;;5005613;28;20037;-67
2023/07/06 11:35:47;;;;;;;3.95;0.85;;;25.60;74.30;;;;;;5010170;28;20048;-69
2023/07/06 11:38:42;;;;;;;2.03;0.77;;;25.30;74.60;;;;;;5009296;28;20112;-85
2023/07/06 11:41:25;;;;;;;1.63;0.70;;;25.40;75.50;;;;;;4999950;28;20034;-73
2023/07/06 11:44:29;;;;;;;4.38;0.88;;;25.10;74.30;;;;;;5025473;28;20025;-73
2023/07/06 11:47:43;;;;;;;5.22;0.90;;;25.30;74.40;;;;;;5009955;28;20544;-69
2023/07/06 11:50:16;;;;;;;2.63;0.73;;;25.10;74.90;;;;;;5010323;28;20042;-68
2023/07/06 11:53:08;;;;;;;1.50;0.80;;;25.40;75.30;;;;;;5005169;28;20049;-68
2023/07/06 11:55:51;;;;;;;3.78;0.98;;;25.90;73.80;;;;;;5011088;28;20048;-74
2023/07/06 12:01:20;;;;;;;2.35;0.80;;;26.10;73.50;;;;;;5008600;28;20069;-70
2023/07/06 12:03:47;;;;;;;2.60;0.88;;;26.10;73.80;;;;;;5008755;28;20370;-71
2023/07/06 12:06:19;;;;;;;1.63;0.90;;;25.80;72.90;;;;;;5010321;28;20038;-66
2023/07/06 12:08:45;;;;;;;1.83;0.93;;;25.50;73.20;;;;;;5012732;28;20076;-67
2023/07/06 12:11:22;;;;;;;3.45;0.80;;;25.30;73.70;;;;;;5014979;28;20030;-69
2023/07/06 12:13:55;;;;;;;2.08;1.08;;;25.40;73.50;;;;;;5008275;28;20445;-69
2023/07/06 12:16:25;;;;;;;2.17;0.98;;;25.50;73.70;;;;;;5008454;28;20033;-69
2023/07/06 12:19:18;;;;;;;2.40;0.68;;;25.90;71.90;;;;;;5010050;28;20137;-67
2023/07/06 12:21:52;;;;;;;3.08;0.70;;;26.20;70.60;;;;;;5008111;28;20377;-69
2023/07/06 12:24:23;;;;;;;3.22;0.60;;;26.40;69.70;;;;;;5008673;28;20041;-68
2023/07/06 12:27:02;;;;;;;2.28;1.08;;;26.00;70.00;;;;;;5008070;28;20037;-69
2023/07/06 12:29:31;;;;;;;1.65;0.85;;;26.50;70.90;;;;;;5003167;28;20030;-68
2023/07/06 12:32:07;;;;;;;1.33;0.60;;;27.30;67.60;;;;;;5008884;28;20168;-69
2023/07/06 12:34:35;;;;;;;2.83;0.80;;;27.80;65.50;;;;;;5009301;28;20033;-68
2023/07/06 12:37:02;;;;;;;4.13;1.08;;;27.80;65.30;;;;;;5014151;28;20034;-68
2023/07/06 12:39:34;;;;;;;4.55;0.95;;;27.90;64.30;;;;;;5012264;28;20022;-69
2023/07/06 12:41:59;;;;;;;3.58;0.80;;;27.30;64.50;;;;;;5021134;28;20030;-69
2023/07/06 12:44:27;;;;;;;2.15;0.88;;;26.80;65.30;;;;;;5009244;28;20371;-70
2023/07/06 12:47:01;;;;;;;1.05;0.60;;;27.10;65.50;;;;;;5011391;28;20410;-70
2023/07/06 12:49:28;;;;;;;1.42;0.70;;;27.30;65.20;;;;;;5012543;28;20041;-69
2023/07/06 12:51:57;;;;;;;2.42;0.88;;;27.50;65.00;;;;;;5026025;28;20501;-69
2023/07/06 12:54:29;;;;;;;2.65;1.30;;;27.70;66.00;;;;;;5004932;28;20080;-68
2023/07/06 12:57:03;;;;;;;2.50;0.95;;;27.40;64.90;;;;;;5009686;28;20339;-68
2023/07/06 12:59:36;;;;;;;3.00;1.27;;;27.50;64.00;;;;;;5013843;28;20030;-71
2023/07/06 13:02:19;;;;;;;1.40;0.80;;;27.40;64.10;;;;;;5011421;28;20033;-69
2023/07/06 13:04:50;;;;;;;2.05;0.90;;;27.50;63.90;;;;;;5011450;28;20030;-70
2023/07/06 13:07:21;;;;;;;2.78;1.15;;;27.40;65.60;;;;;;5027393;28;20172;-71
2023/07/06 13:09:48;;;;;;;4.03;1.10;;;27.50;64.60;;;;;;5017217;28;20065;-69
2023/07/06 13:12:24;;;;;;;3.78;0.95;;;27.20;64.00;;;;;;5011015;28;20409;-71
2023/07/06 13:14:51;;;;;;;1.45;0.68;;;26.70;64.30;;;;;;5004698;28;20042;-69
2023/07/06 13:17:27;;;;;;;2.15;0.90;;;27.30;65.00;;;;;;5005768;28;20087;-73
2023/07/06 13:19:54;;;;;;;2.85;0.70;;;27.30;63.30;;;;;;5011745;28;20048;-71